sensor_id;sensor_type;location;lat;lon;timestamp;pressure;altitude;pressure_sealevel;temperature;humidity
25510;BME280;13413;52.336;21.200;2024-01-27T00:01:49;100178.73;;;3.96;85.15
25510;BME280;13413;52.336;21.200;2024-01-27T00:04:38;100186.47;;;4.09;85.16
25510;BME280;13413;52.336;21.200;2024-01-27T00:07:25;100188.48;;;4.21;85.52
25510;BME280;13413;52.336;21.200;2024-01-27T00:10:16;100195.27;;;4.33;85.67
25510;BME280;13413;52.336;21.200;2024-01-27T00:13:03;100202.98;;;4.43;85.65
25510;BME280;13413;52.336;21.200;2024-01-27T00:15:51;100206.71;;;4.55;85.65
25510;BME280;13413;52.336;21.200;2024-01-27T00:18:39;100213.58;;;4.64;85.87
25510;BME280;13413;52.336;21.200;2024-01-27T00:21:26;100221.27;;;4.74;85.86
25510;BME280;13413;52.336;21.200;2024-01-27T00:24:17;100217.55;;;4.84;85.94
25510;BME280;13413;52.336;21.200;2024-01-27T00:27:05;100226.76;;;4.97;85.72
25510;BME280;13413;52.336;21.200;2024-01-27T00:29:52;100230.95;;;5.03;85.50
25510;BME280;13413;52.336;21.200;2024-01-27T00:32:40;100238.39;;;5.12;85.67
25510;BME280;13413;52.336;21.200;2024-01-27T00:35:27;100243.91;;;5.19;85.39
25510;BME280;13413;52.336;21.200;2024-01-27T00:38:15;100247.89;;;5.26;85.61
25510;BME280;13413;52.336;21.200;2024-01-27T00:41:02;100252.45;;;5.33;85.69
25510;BME280;13413;52.336;21.200;2024-01-27T00:43:50;100259.62;;;5.39;85.39
25510;BME280;13413;52.336;21.200;2024-01-27T00:46:38;100261.91;;;5.43;85.12
25510;BME280;13413;52.336;21.200;2024-01-27T00:49:25;100270.05;;;5.42;85.16
25510;BME280;13413;52.336;21.200;2024-01-27T00:52:13;100277.74;;;5.46;85.01
25510;BME280;13413;52.336;21.200;2024-01-27T00:55:00;100281.80;;;5.49;84.68
25510;BME280;13413;52.336;21.200;2024-01-27T00:57:48;100286.46;;;5.52;84.46
25510;BME280;13413;52.336;21.200;2024-01-27T01:00:35;100290.98;;;5.52;84.50
25510;BME280;13413;52.336;21.200;2024-01-27T01:03:36;100295.42;;;5.55;84.38
25510;BME280;13413;52.336;21.200;2024-01-27T01:06:24;100304.42;;;5.57;84.25
25510;BME280;13413;52.336;21.200;2024-01-27T01:09:12;100305.69;;;5.54;84.33
25510;BME280;13413;52.336;21.200;2024-01-27T01:11:59;100311.09;;;5.55;84.20
25510;BME280;13413;52.336;21.200;2024-01-27T01:14:47;100317.99;;;5.54;84.05
25510;BME280;13413;52.336;21.200;2024-01-27T01:17:34;100316.50;;;5.55;83.87
25510;BME280;13413;52.336;21.200;2024-01-27T01:20:22;100314.31;;;5.52;83.75
25510;BME280;13413;52.336;21.200;2024-01-27T01:23:09;100326.80;;;5.54;83.65
25510;BME280;13413;52.336;21.200;2024-01-27T01:25:57;100330.16;;;5.53;83.65
25510;BME280;13413;52.336;21.200;2024-01-27T01:28:44;100332.41;;;5.54;83.44
25510;BME280;13413;52.336;21.200;2024-01-27T01:31:32;100335.54;;;5.54;83.40
25510;BME280;13413;52.336;21.200;2024-01-27T01:34:19;100338.00;;;5.54;83.27
25510;BME280;13413;52.336;21.200;2024-01-27T01:37:06;100340.70;;;5.55;83.13
25510;BME280;13413;52.336;21.200;2024-01-27T01:39:54;100342.63;;;5.57;82.87
25510;BME280;13413;52.336;21.200;2024-01-27T01:42:41;100342.14;;;5.58;82.65
25510;BME280;13413;52.336;21.200;2024-01-27T01:45:27;100335.55;;;5.58;82.61
25510;BME280;13413;52.336;21.200;2024-01-27T01:56:55;100342.30;;;5.59;81.95
25510;BME280;13413;52.336;21.200;2024-01-27T01:59:45;100349.00;;;5.58;81.87
25510;BME280;13413;52.336;21.200;2024-01-27T02:02:32;100349.39;;;5.56;81.75
25510;BME280;13413;52.336;21.200;2024-01-27T02:05:20;100358.44;;;5.53;81.66
25510;BME280;13413;52.336;21.200;2024-01-27T02:08:08;100359.46;;;5.51;81.61
25510;BME280;13413;52.336;21.200;2024-01-27T02:10:56;100358.00;;;5.50;81.37
25510;BME280;13413;52.336;21.200;2024-01-27T02:13:44;100363.55;;;5.55;81.31
25510;BME280;13413;52.336;21.200;2024-01-27T02:16:31;100369.64;;;5.55;81.12
25510;BME280;13413;52.336;21.200;2024-01-27T02:19:19;100378.48;;;5.56;80.89
25510;BME280;13413;52.336;21.200;2024-01-27T02:22:06;100378.95;;;5.59;80.94
25510;BME280;13413;52.336;21.200;2024-01-27T02:24:54;100381.55;;;5.55;80.84
25510;BME280;13413;52.336;21.200;2024-01-27T02:27:41;100387.50;;;5.59;80.80
25510;BME280;13413;52.336;21.200;2024-01-27T02:30:29;100384.58;;;5.60;80.58
25510;BME280;13413;52.336;21.200;2024-01-27T02:33:16;100385.14;;;5.62;80.90
25510;BME280;13413;52.336;21.200;2024-01-27T02:36:04;100390.67;;;5.61;80.63
25510;BME280;13413;52.336;21.200;2024-01-27T02:38:52;100389.71;;;5.64;80.68
25510;BME280;13413;52.336;21.200;2024-01-27T02:41:39;100389.89;;;5.64;80.58
25510;BME280;13413;52.336;21.200;2024-01-27T02:44:26;100398.14;;;5.66;80.57
25510;BME280;13413;52.336;21.200;2024-01-27T02:47:14;100402.21;;;5.65;80.49
25510;BME280;13413;52.336;21.200;2024-01-27T02:50:01;100401.88;;;5.65;80.55
25510;BME280;13413;52.336;21.200;2024-01-27T02:52:49;100402.21;;;5.65;80.37
25510;BME280;13413;52.336;21.200;2024-01-27T02:55:36;100405.00;;;5.67;80.44
25510;BME280;13413;52.336;21.200;2024-01-27T02:58:24;100412.40;;;5.67;80.39
25510;BME280;13413;52.336;21.200;2024-01-27T03:01:12;100412.70;;;5.68;80.22
25510;BME280;13413;52.336;21.200;2024-01-27T03:03:59;100415.08;;;5.68;80.15
25510;BME280;13413;52.336;21.200;2024-01-27T03:06:47;100413.39;;;5.67;80.10
25510;BME280;13413;52.336;21.200;2024-01-27T03:09:34;100417.40;;;5.68;79.95
25510;BME280;13413;52.336;21.200;2024-01-27T03:12:21;100420.36;;;5.68;80.09
25510;BME280;13413;52.336;21.200;2024-01-27T03:15:10;100421.84;;;5.67;79.93
25510;BME280;13413;52.336;21.200;2024-01-27T03:17:57;100420.81;;;5.67;79.80
25510;BME280;13413;52.336;21.200;2024-01-27T03:26:49;100421.91;;;5.68;79.69
25510;BME280;13413;52.336;21.200;2024-01-27T03:29:37;100423.73;;;5.64;79.45
25510;BME280;13413;52.336;21.200;2024-01-27T03:32:24;100425.27;;;5.68;79.41
25510;BME280;13413;52.336;21.200;2024-01-27T03:35:12;100422.38;;;5.67;79.23
25510;BME280;13413;52.336;21.200;2024-01-27T03:37:59;100427.92;;;5.70;79.26
25510;BME280;13413;52.336;21.200;2024-01-27T03:40:47;100429.85;;;5.68;79.08
25510;BME280;13413;52.336;21.200;2024-01-27T03:43:34;100433.97;;;5.71;79.02
25510;BME280;13413;52.336;21.200;2024-01-27T03:46:22;100434.20;;;5.68;78.89
25510;BME280;13413;52.336;21.200;2024-01-27T03:49:10;100440.64;;;5.71;79.00
25510;BME280;13413;52.336;21.200;2024-01-27T03:51:57;100440.49;;;5.72;78.90
25510;BME280;13413;52.336;21.200;2024-01-27T03:54:45;100446.20;;;5.73;78.89
25510;BME280;13413;52.336;21.200;2024-01-27T03:57:32;100445.98;;;5.74;78.90
25510;BME280;13413;52.336;21.200;2024-01-27T04:00:20;100447.84;;;5.75;78.81
25510;BME280;13413;52.336;21.200;2024-01-27T04:03:08;100454.12;;;5.73;78.69
25510;BME280;13413;52.336;21.200;2024-01-27T04:05:56;100455.90;;;5.72;78.53
25510;BME280;13413;52.336;21.200;2024-01-27T04:08:42;100457.27;;;5.73;78.26
25510;BME280;13413;52.336;21.200;2024-01-27T04:17:35;100456.47;;;5.78;78.11
25510;BME280;13413;52.336;21.200;2024-01-27T04:20:23;100458.77;;;5.75;77.99
25510;BME280;13413;52.336;21.200;2024-01-27T04:23:11;100461.69;;;5.74;77.92
25510;BME280;13413;52.336;21.200;2024-01-27T04:29:20;100463.89;;;5.79;77.69
25510;BME280;13413;52.336;21.200;2024-01-27T04:32:08;100465.75;;;5.78;77.33
25510;BME280;13413;52.336;21.200;2024-01-27T04:34:55;100464.09;;;5.79;77.43
25510;BME280;13413;52.336;21.200;2024-01-27T04:37:43;100465.61;;;5.79;77.33
25510;BME280;13413;52.336;21.200;2024-01-27T04:40:30;100470.67;;;5.79;77.13
25510;BME280;13413;52.336;21.200;2024-01-27T04:43:18;100472.67;;;5.79;77.10
25510;BME280;13413;52.336;21.200;2024-01-27T04:46:05;100474.81;;;5.77;77.06
25510;BME280;13413;52.336;21.200;2024-01-27T04:48:53;100476.92;;;5.79;77.22
25510;BME280;13413;52.336;21.200;2024-01-27T04:51:41;100476.43;;;5.76;76.95
25510;BME280;13413;52.336;21.200;2024-01-27T04:54:28;100480.66;;;5.78;77.11
25510;BME280;13413;52.336;21.200;2024-01-27T04:57:15;100482.55;;;5.77;76.94
25510;BME280;13413;52.336;21.200;2024-01-27T05:00:07;100487.28;;;5.78;76.97
25510;BME280;13413;52.336;21.200;2024-01-27T05:02:55;100486.90;;;5.73;76.66
25510;BME280;13413;52.336;21.200;2024-01-27T05:05:43;100491.86;;;5.76;76.79
25510;BME280;13413;52.336;21.200;2024-01-27T05:08:31;100500.16;;;5.78;76.74
25510;BME280;13413;52.336;21.200;2024-01-27T05:11:28;100504.14;;;5.75;76.86
25510;BME280;13413;52.336;21.200;2024-01-27T05:14:16;100499.31;;;5.74;76.88
25510;BME280;13413;52.336;21.200;2024-01-27T05:17:04;100501.91;;;5.70;76.86
25510;BME280;13413;52.336;21.200;2024-01-27T05:19:52;100501.25;;;5.70;77.00
25510;BME280;13413;52.336;21.200;2024-01-27T05:22:40;100500.45;;;5.69;77.03
25510;BME280;13413;52.336;21.200;2024-01-27T05:25:27;100501.04;;;5.68;77.11
25510;BME280;13413;52.336;21.200;2024-01-27T05:28:15;100498.36;;;5.65;77.02
25510;BME280;13413;52.336;21.200;2024-01-27T05:31:03;100491.23;;;5.64;77.20
25510;BME280;13413;52.336;21.200;2024-01-27T05:33:50;100496.27;;;5.65;77.25
25510;BME280;13413;52.336;21.200;2024-01-27T05:36:38;100495.88;;;5.63;77.35
25510;BME280;13413;52.336;21.200;2024-01-27T05:39:25;100493.98;;;5.61;77.32
25510;BME280;13413;52.336;21.200;2024-01-27T05:42:15;100488.25;;;5.58;77.38
25510;BME280;13413;52.336;21.200;2024-01-27T05:45:03;100491.55;;;5.57;77.67
25510;BME280;13413;52.336;21.200;2024-01-27T05:47:51;100490.77;;;5.54;77.71
25510;BME280;13413;52.336;21.200;2024-01-27T05:50:41;100487.93;;;5.52;77.84
25510;BME280;13413;52.336;21.200;2024-01-27T05:53:29;100486.98;;;5.45;78.08
25510;BME280;13413;52.336;21.200;2024-01-27T05:56:19;100484.09;;;5.42;78.08
25510;BME280;13413;52.336;21.200;2024-01-27T05:59:07;100484.88;;;5.44;78.14
25510;BME280;13413;52.336;21.200;2024-01-27T06:01:54;100489.50;;;5.43;78.24
25510;BME280;13413;52.336;21.200;2024-01-27T06:04:42;100490.13;;;5.43;78.14
25510;BME280;13413;52.336;21.200;2024-01-27T06:07:30;100500.25;;;5.44;78.22
25510;BME280;13413;52.336;21.200;2024-01-27T06:10:31;100501.46;;;5.42;78.11
25510;BME280;13413;52.336;21.200;2024-01-27T06:13:39;100505.17;;;5.42;78.35
25510;BME280;13413;52.336;21.200;2024-01-27T06:16:27;100511.13;;;5.40;78.61
25510;BME280;13413;52.336;21.200;2024-01-27T06:19:14;100512.46;;;5.38;78.75
25510;BME280;13413;52.336;21.200;2024-01-27T06:22:02;100517.69;;;5.34;79.11
25510;BME280;13413;52.336;21.200;2024-01-27T06:24:49;100517.75;;;5.31;79.14
25510;BME280;13413;52.336;21.200;2024-01-27T06:27:35;100516.09;;;5.31;79.36
25510;BME280;13413;52.336;21.200;2024-01-27T06:33:04;100518.65;;;5.27;79.74
25510;BME280;13413;52.336;21.200;2024-01-27T06:35:51;100523.77;;;5.21;79.72
25510;BME280;13413;52.336;21.200;2024-01-27T06:38:39;100518.57;;;5.18;79.85
25510;BME280;13413;52.336;21.200;2024-01-27T06:41:26;100519.48;;;5.18;79.94
25510;BME280;13413;52.336;21.200;2024-01-27T06:44:14;100526.54;;;5.18;79.92
25510;BME280;13413;52.336;21.200;2024-01-27T06:47:01;100528.21;;;5.10;80.08
25510;BME280;13413;52.336;21.200;2024-01-27T06:49:49;100534.20;;;5.10;80.15
25510;BME280;13413;52.336;21.200;2024-01-27T06:52:36;100526.67;;;5.08;80.28
25510;BME280;13413;52.336;21.200;2024-01-27T06:58:25;100535.65;;;5.04;80.47
25510;BME280;13413;52.336;21.200;2024-01-27T07:01:13;100536.34;;;5.04;80.51
25510;BME280;13413;52.336;21.200;2024-01-27T07:04:00;100532.16;;;5.04;80.60
25510;BME280;13413;52.336;21.200;2024-01-27T07:06:48;100535.03;;;5.01;80.93
25510;BME280;13413;52.336;21.200;2024-01-27T07:09:35;100537.14;;;4.99;80.98
25510;BME280;13413;52.336;21.200;2024-01-27T07:12:23;100539.35;;;5.00;80.87
25510;BME280;13413;52.336;21.200;2024-01-27T07:15:11;100542.82;;;4.98;80.94
25510;BME280;13413;52.336;21.200;2024-01-27T07:17:58;100541.20;;;4.96;81.09
25510;BME280;13413;52.336;21.200;2024-01-27T07:20:46;100541.13;;;4.93;81.34
25510;BME280;13413;52.336;21.200;2024-01-27T07:23:33;100546.51;;;4.94;81.35
25510;BME280;13413;52.336;21.200;2024-01-27T07:26:21;100544.59;;;4.92;81.28
25510;BME280;13413;52.336;21.200;2024-01-27T07:29:08;100545.66;;;4.90;81.48
25510;BME280;13413;52.336;21.200;2024-01-27T07:31:56;100549.77;;;4.89;81.63
25510;BME280;13413;52.336;21.200;2024-01-27T07:34:44;100549.30;;;4.84;81.86
25510;BME280;13413;52.336;21.200;2024-01-27T07:40:33;100553.77;;;4.85;81.92
25510;BME280;13413;52.336;21.200;2024-01-27T07:43:20;100557.80;;;4.81;82.15
25510;BME280;13413;52.336;21.200;2024-01-27T07:46:08;100557.61;;;4.85;82.03
25510;BME280;13413;52.336;21.200;2024-01-27T07:48:55;100559.64;;;4.86;82.01
25510;BME280;13413;52.336;21.200;2024-01-27T07:51:43;100562.89;;;4.89;81.93
25510;BME280;13413;52.336;21.200;2024-01-27T07:54:31;100562.79;;;4.88;82.07
25510;BME280;13413;52.336;21.200;2024-01-27T07:57:19;100566.88;;;4.90;82.04
25510;BME280;13413;52.336;21.200;2024-01-27T08:00:08;100565.96;;;4.90;82.15
25510;BME280;13413;52.336;21.200;2024-01-27T08:02:55;100569.73;;;4.91;82.15
25510;BME280;13413;52.336;21.200;2024-01-27T08:05:43;100569.05;;;4.95;82.11
25510;BME280;13413;52.336;21.200;2024-01-27T08:08:30;100575.64;;;4.95;82.19
25510;BME280;13413;52.336;21.200;2024-01-27T08:11:19;100582.17;;;4.93;82.19
25510;BME280;13413;52.336;21.200;2024-01-27T08:14:06;100580.78;;;4.93;82.17
25510;BME280;13413;52.336;21.200;2024-01-27T08:16:54;100578.11;;;4.91;82.40
25510;BME280;13413;52.336;21.200;2024-01-27T08:19:41;100581.08;;;4.93;82.24
25510;BME280;13413;52.336;21.200;2024-01-27T08:22:29;100580.75;;;4.91;82.30
25510;BME280;13413;52.336;21.200;2024-01-27T08:25:17;100582.23;;;4.94;82.22
25510;BME280;13413;52.336;21.200;2024-01-27T08:28:06;100587.70;;;4.96;82.49
25510;BME280;13413;52.336;21.200;2024-01-27T08:30:54;100590.48;;;4.96;82.46
25510;BME280;13413;52.336;21.200;2024-01-27T08:36:50;100595.98;;;4.99;82.47
25510;BME280;13413;52.336;21.200;2024-01-27T08:39:38;100598.09;;;5.01;82.33
25510;BME280;13413;52.336;21.200;2024-01-27T08:42:24;100603.34;;;4.99;82.26
25510;BME280;13413;52.336;21.200;2024-01-27T08:45:10;100602.04;;;4.96;82.57
25510;BME280;13413;52.336;21.200;2024-01-27T08:56:43;100623.83;;;4.97;82.69
25510;BME280;13413;52.336;21.200;2024-01-27T08:59:30;100628.43;;;4.97;82.78
25510;BME280;13413;52.336;21.200;2024-01-27T09:02:18;100628.57;;;4.96;82.82
25510;BME280;13413;52.336;21.200;2024-01-27T09:05:06;100631.45;;;4.98;82.83
25510;BME280;13413;52.336;21.200;2024-01-27T09:07:54;100631.20;;;4.95;82.94
25510;BME280;13413;52.336;21.200;2024-01-27T09:10:41;100637.92;;;4.97;82.83
25510;BME280;13413;52.336;21.200;2024-01-27T09:13:29;100635.02;;;5.00;82.91
25510;BME280;13413;52.336;21.200;2024-01-27T09:16:17;100640.60;;;5.00;82.92
25510;BME280;13413;52.336;21.200;2024-01-27T09:19:04;100647.35;;;5.01;83.01
25510;BME280;13413;52.336;21.200;2024-01-27T09:22:13;100653.64;;;5.03;82.92
25510;BME280;13413;52.336;21.200;2024-01-27T09:25:01;100658.60;;;5.05;82.82
25510;BME280;13413;52.336;21.200;2024-01-27T09:27:48;100659.59;;;5.05;82.59
25510;BME280;13413;52.336;21.200;2024-01-27T09:30:36;100669.40;;;5.07;82.73
25510;BME280;13413;52.336;21.200;2024-01-27T09:33:23;100672.09;;;5.09;82.80
25510;BME280;13413;52.336;21.200;2024-01-27T09:36:11;100672.23;;;5.11;82.69
25510;BME280;13413;52.336;21.200;2024-01-27T09:38:58;100672.80;;;5.13;82.79
25510;BME280;13413;52.336;21.200;2024-01-27T09:41:46;100674.87;;;5.13;82.68
25510;BME280;13413;52.336;21.200;2024-01-27T09:44:36;100681.05;;;5.12;82.76
25510;BME280;13413;52.336;21.200;2024-01-27T09:47:24;100686.17;;;5.10;82.91
25510;BME280;13413;52.336;21.200;2024-01-27T09:50:12;100686.40;;;5.11;82.78
25510;BME280;13413;52.336;21.200;2024-01-27T09:53:01;100688.46;;;5.12;83.00
25510;BME280;13413;52.336;21.200;2024-01-27T09:55:49;100688.30;;;5.12;83.00
25510;BME280;13413;52.336;21.200;2024-01-27T09:58:36;100691.46;;;5.16;82.79
25510;BME280;13413;52.336;21.200;2024-01-27T10:01:25;100692.73;;;5.19;82.91
25510;BME280;13413;52.336;21.200;2024-01-27T10:04:15;100697.42;;;5.20;82.94
25510;BME280;13413;52.336;21.200;2024-01-27T10:07:03;100693.95;;;5.23;82.83
25510;BME280;13413;52.336;21.200;2024-01-27T10:09:51;100701.52;;;5.29;82.98
25510;BME280;13413;52.336;21.200;2024-01-27T10:12:41;100702.41;;;5.33;82.91
25510;BME280;13413;52.336;21.200;2024-01-27T10:15:29;100706.85;;;5.36;83.02
25510;BME280;13413;52.336;21.200;2024-01-27T10:18:17;100712.90;;;5.39;82.80
25510;BME280;13413;52.336;21.200;2024-01-27T10:21:15;100714.70;;;5.43;82.78
25510;BME280;13413;52.336;21.200;2024-01-27T10:27:17;100726.46;;;5.50;82.77
25510;BME280;13413;52.336;21.200;2024-01-27T10:30:08;100729.73;;;5.47;82.48
25510;BME280;13413;52.336;21.200;2024-01-27T10:33:02;100737.95;;;5.47;82.71
25510;BME280;13413;52.336;21.200;2024-01-27T10:35:59;100739.95;;;5.50;82.70
25510;BME280;13413;52.336;21.200;2024-01-27T10:38:47;100745.80;;;5.50;82.70
25510;BME280;13413;52.336;21.200;2024-01-27T10:41:34;100749.61;;;5.46;82.69
25510;BME280;13413;52.336;21.200;2024-01-27T10:44:22;100754.24;;;5.49;82.74
25510;BME280;13413;52.336;21.200;2024-01-27T10:47:13;100757.11;;;5.53;82.66
25510;BME280;13413;52.336;21.200;2024-01-27T10:50:04;100761.13;;;5.55;82.67
25510;BME280;13413;52.336;21.200;2024-01-27T10:52:58;100763.52;;;5.56;82.59
25510;BME280;13413;52.336;21.200;2024-01-27T10:55:47;100768.08;;;5.56;82.56
25510;BME280;13413;52.336;21.200;2024-01-27T10:58:35;100774.04;;;5.56;82.59
25510;BME280;13413;52.336;21.200;2024-01-27T11:01:23;100778.05;;;5.56;82.36
25510;BME280;13413;52.336;21.200;2024-01-27T11:04:12;100784.75;;;5.56;82.38
25510;BME280;13413;52.336;21.200;2024-01-27T11:06:58;100785.06;;;5.54;82.36
25510;BME280;13413;52.336;21.200;2024-01-27T11:09:46;100789.52;;;5.53;82.42
25510;BME280;13413;52.336;21.200;2024-01-27T11:17:59;100799.91;;;5.57;82.38
25510;BME280;13413;52.336;21.200;2024-01-27T11:20:47;100811.70;;;5.56;82.41
25510;BME280;13413;52.336;21.200;2024-01-27T11:23:35;100813.30;;;5.56;82.47
25510;BME280;13413;52.336;21.200;2024-01-27T11:26:23;100816.07;;;5.57;82.39
25510;BME280;13413;52.336;21.200;2024-01-27T11:29:11;100816.37;;;5.57;82.43
25510;BME280;13413;52.336;21.200;2024-01-27T11:32:01;100823.16;;;5.58;82.35
25510;BME280;13413;52.336;21.200;2024-01-27T11:34:49;100829.35;;;5.59;82.22
25510;BME280;13413;52.336;21.200;2024-01-27T11:37:37;100835.30;;;5.59;82.15
25510;BME280;13413;52.336;21.200;2024-01-27T11:40:25;100837.23;;;5.62;82.25
25510;BME280;13413;52.336;21.200;2024-01-27T11:43:13;100846.39;;;5.61;82.02
25510;BME280;13413;52.336;21.200;2024-01-27T11:46:01;100851.69;;;5.58;81.78
25510;BME280;13413;52.336;21.200;2024-01-27T11:48:49;100854.59;;;5.59;81.76
25510;BME280;13413;52.336;21.200;2024-01-27T11:51:37;100862.46;;;5.62;81.79
25510;BME280;13413;52.336;21.200;2024-01-27T11:54:24;100867.67;;;5.63;81.69
25510;BME280;13413;52.336;21.200;2024-01-27T11:57:12;100873.11;;;5.63;81.57
25510;BME280;13413;52.336;21.200;2024-01-27T12:00:00;100877.55;;;5.62;81.49
25510;BME280;13413;52.336;21.200;2024-01-27T12:02:51;100887.10;;;5.61;81.31
25510;BME280;13413;52.336;21.200;2024-01-27T12:05:39;100890.33;;;5.60;81.27
25510;BME280;13413;52.336;21.200;2024-01-27T12:08:27;100896.08;;;5.59;81.13
25510;BME280;13413;52.336;21.200;2024-01-27T12:11:14;100899.95;;;5.56;81.10
25510;BME280;13413;52.336;21.200;2024-01-27T12:14:02;100903.28;;;5.56;81.03
25510;BME280;13413;52.336;21.200;2024-01-27T12:16:50;100912.48;;;5.57;81.05
25510;BME280;13413;52.336;21.200;2024-01-27T12:19:38;100918.52;;;5.58;80.95
25510;BME280;13413;52.336;21.200;2024-01-27T12:22:39;100929.30;;;5.58;81.01
25510;BME280;13413;52.336;21.200;2024-01-27T12:25:27;100937.61;;;5.59;80.87
25510;BME280;13413;52.336;21.200;2024-01-27T12:28:15;100943.51;;;5.54;80.92
25510;BME280;13413;52.336;21.200;2024-01-27T12:31:05;100943.12;;;5.46;80.89
25510;BME280;13413;52.336;21.200;2024-01-27T12:33:54;100948.23;;;5.43;81.13
25510;BME280;13413;52.336;21.200;2024-01-27T12:36:45;100956.14;;;5.43;81.29
25510;BME280;13413;52.336;21.200;2024-01-27T12:39:34;100965.50;;;5.43;81.44
25510;BME280;13413;52.336;21.200;2024-01-27T12:42:21;100970.15;;;5.41;81.39
25510;BME280;13413;52.336;21.200;2024-01-27T12:45:09;100973.01;;;5.43;81.43
25510;BME280;13413;52.336;21.200;2024-01-27T12:47:57;100978.33;;;5.40;81.32
25510;BME280;13413;52.336;21.200;2024-01-27T12:50:45;100987.33;;;5.39;81.33
25510;BME280;13413;52.336;21.200;2024-01-27T12:53:32;100994.09;;;5.40;81.39
25510;BME280;13413;52.336;21.200;2024-01-27T12:56:20;100996.05;;;5.40;81.38
25510;BME280;13413;52.336;21.200;2024-01-27T12:59:07;101007.65;;;5.39;81.27
25510;BME280;13413;52.336;21.200;2024-01-27T13:01:55;101016.81;;;5.41;81.21
25510;BME280;13413;52.336;21.200;2024-01-27T13:04:43;101016.52;;;5.42;81.11
25510;BME280;13413;52.336;21.200;2024-01-27T13:07:33;101022.54;;;5.44;81.12
25510;BME280;13413;52.336;21.200;2024-01-27T13:10:21;101025.58;;;5.47;81.04
25510;BME280;13413;52.336;21.200;2024-01-27T13:13:08;101026.58;;;5.48;80.97
25510;BME280;13413;52.336;21.200;2024-01-27T13:15:56;101028.62;;;5.51;80.95
25510;BME280;13413;52.336;21.200;2024-01-27T13:18:44;101034.41;;;5.51;80.75
25510;BME280;13413;52.336;21.200;2024-01-27T13:21:31;101042.25;;;5.54;80.70
25510;BME280;13413;52.336;21.200;2024-01-27T13:24:19;101044.91;;;5.58;80.70
25510;BME280;13413;52.336;21.200;2024-01-27T13:27:07;101049.88;;;5.61;80.64
25510;BME280;13413;52.336;21.200;2024-01-27T13:29:53;101058.23;;;5.64;80.59
25510;BME280;13413;52.336;21.200;2024-01-27T13:40:07;101072.69;;;5.66;79.75
25510;BME280;13413;52.336;21.200;2024-01-27T13:42:55;101077.80;;;5.63;79.68
25510;BME280;13413;52.336;21.200;2024-01-27T13:45:43;101081.70;;;5.65;79.80
25510;BME280;13413;52.336;21.200;2024-01-27T13:48:30;101087.20;;;5.66;79.52
25510;BME280;13413;52.336;21.200;2024-01-27T13:51:18;101094.52;;;5.69;79.62
25510;BME280;13413;52.336;21.200;2024-01-27T13:54:06;101099.09;;;5.69;79.45
25510;BME280;13413;52.336;21.200;2024-01-27T13:56:54;101102.77;;;5.69;79.34
25510;BME280;13413;52.336;21.200;2024-01-27T13:59:55;101108.78;;;5.71;79.32
25510;BME280;13413;52.336;21.200;2024-01-27T14:02:46;101115.23;;;5.71;79.05
25510;BME280;13413;52.336;21.200;2024-01-27T14:05:33;101120.21;;;5.72;79.10
25510;BME280;13413;52.336;21.200;2024-01-27T14:08:21;101127.73;;;5.73;79.00
25510;BME280;13413;52.336;21.200;2024-01-27T14:11:09;101134.80;;;5.70;78.65
25510;BME280;13413;52.336;21.200;2024-01-27T14:13:56;101136.13;;;5.69;78.69
25510;BME280;13413;52.336;21.200;2024-01-27T14:16:46;101136.38;;;5.68;78.70
25510;BME280;13413;52.336;21.200;2024-01-27T14:19:34;101146.02;;;5.66;78.72
25510;BME280;13413;52.336;21.200;2024-01-27T14:22:21;101152.08;;;5.63;78.46
25510;BME280;13413;52.336;21.200;2024-01-27T14:25:09;101163.02;;;5.62;78.37
25510;BME280;13413;52.336;21.200;2024-01-27T14:27:57;101170.75;;;5.62;78.38
25510;BME280;13413;52.336;21.200;2024-01-27T14:30:45;101181.03;;;5.58;78.23
25510;BME280;13413;52.336;21.200;2024-01-27T14:33:33;101192.20;;;5.59;78.18
25510;BME280;13413;52.336;21.200;2024-01-27T14:36:21;101197.64;;;5.56;78.11
25510;BME280;13413;52.336;21.200;2024-01-27T14:39:08;101200.24;;;5.57;78.13
25510;BME280;13413;52.336;21.200;2024-01-27T14:41:56;101207.55;;;5.58;78.21
25510;BME280;13413;52.336;21.200;2024-01-27T14:44:44;101208.96;;;5.57;78.06
25510;BME280;13413;52.336;21.200;2024-01-27T14:47:31;101213.70;;;5.57;78.20
25510;BME280;13413;52.336;21.200;2024-01-27T14:50:19;101218.11;;;5.55;77.96
25510;BME280;13413;52.336;21.200;2024-01-27T14:53:07;101225.52;;;5.50;77.70
25510;BME280;13413;52.336;21.200;2024-01-27T14:55:54;101230.34;;;5.49;77.77
25510;BME280;13413;52.336;21.200;2024-01-27T14:58:42;101235.08;;;5.47;77.83
25510;BME280;13413;52.336;21.200;2024-01-27T15:01:30;101237.70;;;5.47;77.83
25510;BME280;13413;52.336;21.200;2024-01-27T15:04:17;101238.45;;;5.44;77.73
25510;BME280;13413;52.336;21.200;2024-01-27T15:07:05;101251.98;;;5.44;77.57
25510;BME280;13413;52.336;21.200;2024-01-27T15:09:56;101255.64;;;5.42;77.24
25510;BME280;13413;52.336;21.200;2024-01-27T15:12:43;101259.97;;;5.40;77.29
25510;BME280;13413;52.336;21.200;2024-01-27T15:15:31;101272.92;;;5.38;76.91
25510;BME280;13413;52.336;21.200;2024-01-27T15:18:19;101279.14;;;5.35;76.62
25510;BME280;13413;52.336;21.200;2024-01-27T15:21:08;101285.95;;;5.34;76.75
25510;BME280;13413;52.336;21.200;2024-01-27T15:30:18;101311.70;;;5.25;77.28
25510;BME280;13413;52.336;21.200;2024-01-27T15:33:06;101317.59;;;5.15;77.48
25510;BME280;13413;52.336;21.200;2024-01-27T15:35:54;101321.52;;;5.07;77.64
25510;BME280;13413;52.336;21.200;2024-01-27T15:38:41;101324.29;;;5.02;77.81
25510;BME280;13413;52.336;21.200;2024-01-27T15:41:30;101327.88;;;5.01;77.98
25510;BME280;13413;52.336;21.200;2024-01-27T15:44:17;101335.27;;;4.99;78.18
25510;BME280;13413;52.336;21.200;2024-01-27T15:47:05;101339.38;;;4.98;78.09